createdAt,value
2017-08-08T00:01:17.286Z,71.50
2017-08-08T00:03:44.757Z,71.40
2017-08-08T00:06:12.295Z,72.00
2017-08-08T00:08:39.950Z,72.50
2017-08-08T00:11:07.454Z,72.60
2017-08-08T00:13:35.649Z,73.00
2017-08-08T00:16:03.258Z,73.20
2017-08-08T00:18:31.486Z,72.70
2017-08-08T00:20:58.954Z,72.70
2017-08-08T00:23:26.690Z,72.80
2017-08-08T00:25:54.949Z,73.00
2017-08-08T00:28:23.182Z,72.60
2017-08-08T00:30:50.767Z,72.60
2017-08-08T00:33:18.238Z,73.40
2017-08-08T00:35:45.741Z,73.60
2017-08-08T00:38:14.006Z,73.90
2017-08-08T00:40:42.369Z,74.30
2017-08-08T00:43:10.659Z,74.30
2017-08-08T00:45:38.121Z,73.50
2017-08-08T00:48:05.609Z,73.20
2017-08-08T00:50:33.978Z,73.30
2017-08-08T00:53:02.210Z,73.10
2017-08-08T00:55:30.614Z,73.10
2017-08-08T00:57:58.347Z,73.00
2017-08-08T01:00:26.580Z,73.20
2017-08-08T01:02:54.051Z,73.20
2017-08-08T01:05:22.520Z,73.60
2017-08-08T01:07:50.054Z,73.50
2017-08-08T01:10:18.287Z,73.30
2017-08-08T01:12:45.794Z,73.20
2017-08-08T01:15:13.266Z,73.20
2017-08-08T01:17:40.750Z,73.80
2017-08-08T01:20:08.450Z,74.10
2017-08-08T01:22:35.955Z,75.50
2017-08-08T01:25:04.522Z,75.40
2017-08-08T01:27:32.982Z,75.40
2017-08-08T01:30:01.220Z,75.20
2017-08-08T01:32:28.682Z,75.10
2017-08-08T01:34:57.046Z,76.80
2017-08-08T01:37:25.270Z,76.10
2017-08-08T01:39:52.754Z,76.10
2017-08-08T01:42:20.374Z,75.90
2017-08-08T01:44:47.843Z,74.90
2017-08-08T01:47:15.315Z,74.80
2017-08-08T01:49:42.822Z,74.80
2017-08-08T01:52:11.049Z,75.00
2017-08-08T01:54:38.514Z,74.90
2017-08-08T01:57:06.887Z,75.50
2017-08-08T01:59:35.130Z,75.50
2017-08-08T02:02:03.369Z,75.90
2017-08-08T02:04:31.049Z,75.90
2017-08-08T02:06:59.333Z,76.50
2017-08-08T02:09:26.858Z,76.50
2017-08-08T02:11:54.398Z,76.90
2017-08-08T02:14:22.651Z,77.90
2017-08-08T02:16:50.885Z,78.80
2017-08-08T02:19:18.566Z,78.70
2017-08-08T02:21:46.055Z,78.90
2017-08-08T02:24:13.582Z,78.60
2017-08-08T02:26:41.846Z,78.70
2017-08-08T02:29:09.599Z,78.70
2017-08-08T02:31:37.139Z,79.30
2017-08-08T02:34:05.399Z,80.20
2017-08-08T02:36:33.144Z,80.20
2017-08-08T02:39:01.393Z,80.90
2017-08-08T02:41:29.654Z,81.60
2017-08-08T02:43:57.922Z,81.30
2017-08-08T02:46:26.267Z,81.30
2017-08-08T02:48:55.251Z,81.30
2017-08-08T02:51:22.784Z,82.30
2017-08-08T02:53:50.294Z,82.40
2017-08-08T02:56:17.782Z,82.50
2017-08-08T02:58:46.054Z,83.00
2017-08-08T03:01:13.594Z,83.00
2017-08-08T03:03:41.822Z,83.40
2017-08-08T03:06:09.470Z,83.40
2017-08-08T03:08:38.062Z,82.30
2017-08-08T03:11:06.329Z,82.30
2017-08-08T03:13:34.574Z,82.80
2017-08-08T03:16:02.856Z,82.60
2017-08-08T03:18:30.699Z,82.60
2017-08-08T03:20:58.958Z,82.70
2017-08-08T03:23:27.199Z,82.90
2017-08-08T03:25:55.682Z,83.10
2017-08-08T03:28:23.924Z,83.50
2017-08-08T03:30:51.386Z,84.30
2017-08-08T03:33:19.754Z,83.20
2017-08-08T03:35:47.235Z,83.20
2017-08-08T03:38:15.470Z,84.20
2017-08-08T03:40:43.040Z,84.20
2017-08-08T03:43:10.579Z,82.70
2017-08-08T03:45:38.121Z,82.50
2017-08-08T03:48:05.666Z,82.80
2017-08-08T03:50:33.211Z,82.60
2017-08-08T03:53:00.750Z,82.50
2017-08-08T03:55:29.111Z,83.20
2017-08-08T03:57:57.351Z,82.90
2017-08-08T04:00:24.920Z,82.90
2017-08-08T04:02:53.202Z,83.40
2017-08-08T04:05:20.732Z,83.40
2017-08-08T04:07:48.466Z,82.40
2017-08-08T04:10:16.706Z,81.50
2017-08-08T04:12:44.269Z,81.50
2017-08-08T04:15:15.158Z,81.50
2017-08-08T04:17:42.846Z,81.30
2017-08-08T04:20:11.075Z,79.80
2017-08-08T04:22:38.551Z,79.70
2017-08-08T04:25:06.286Z,79.60
2017-08-08T04:27:34.534Z,81.70
2017-08-08T04:30:02.099Z,81.70
2017-08-08T04:32:29.639Z,81.30
2017-08-08T04:34:57.906Z,79.50
2017-08-08T04:37:25.470Z,79.50
2017-08-08T04:39:53.739Z,79.70
2017-08-08T04:42:21.211Z,79.70
2017-08-08T04:44:48.818Z,79.60
2017-08-08T04:47:17.082Z,79.60
2017-08-08T04:49:44.622Z,79.60
2017-08-08T04:52:13.336Z,79.00
2017-08-08T04:54:40.831Z,78.90
2017-08-08T04:57:09.098Z,77.70
2017-08-08T04:59:37.559Z,78.00
2017-08-08T05:02:05.826Z,78.00
2017-08-08T05:04:33.371Z,77.90
2017-08-08T05:07:00.920Z,77.40
2017-08-08T05:09:28.391Z,77.90
2017-08-08T05:11:55.890Z,77.50
2017-08-08T05:14:24.362Z,76.50
2017-08-08T05:16:52.614Z,76.20
2017-08-08T05:19:20.852Z,76.10
2017-08-08T05:21:48.522Z,76.10
2017-08-08T05:24:16.792Z,75.80
2017-08-08T05:26:45.038Z,76.20
2017-08-08T05:29:13.321Z,75.50
2017-08-08T05:31:40.847Z,75.30
2017-08-08T05:34:09.114Z,75.00
2017-08-08T05:36:37.370Z,74.70
2017-08-08T05:39:05.634Z,75.00
2017-08-08T05:41:33.893Z,74.50
2017-08-08T05:44:02.362Z,74.70
2017-08-08T05:46:30.607Z,74.50
2017-08-08T05:48:58.846Z,73.60
2017-08-08T05:51:26.354Z,74.20
2017-08-08T05:53:53.871Z,74.20
2017-08-08T05:56:22.110Z,74.70
2017-08-08T05:58:49.594Z,74.60
2017-08-08T06:01:17.119Z,74.10
2017-08-08T06:03:44.619Z,74.00
2017-08-08T06:06:12.082Z,73.90
2017-08-08T06:08:40.317Z,74.40
2017-08-08T06:11:08.003Z,73.60
2017-08-08T06:13:36.234Z,74.60
2017-08-08T06:16:03.697Z,74.60
2017-08-08T06:18:31.947Z,74.90
2017-08-08T06:20:59.710Z,74.90
2017-08-08T06:23:27.976Z,76.20
2017-08-08T06:25:55.546Z,76.10
2017-08-08T06:28:23.062Z,76.50
2017-08-08T06:30:51.326Z,76.80
2017-08-08T06:33:18.804Z,76.80
2017-08-08T06:35:47.174Z,76.40
2017-08-08T06:38:15.419Z,76.50
2017-08-08T06:40:42.983Z,76.50
2017-08-08T06:43:11.343Z,75.20
2017-08-08T06:45:39.574Z,75.60
2017-08-08T06:48:07.051Z,75.40
2017-08-08T06:50:34.591Z,72.90
2017-08-08T06:53:02.834Z,74.80
2017-08-08T06:55:30.335Z,74.80
2017-08-08T06:57:57.798Z,73.60
2017-08-08T07:00:25.275Z,73.90
2017-08-08T07:02:53.740Z,72.80
2017-08-08T07:05:22.003Z,72.90
2017-08-08T07:07:50.258Z,72.60
2017-08-08T07:10:18.727Z,72.50
2017-08-08T07:12:46.466Z,72.50
2017-08-08T07:15:15.061Z,73.00
2017-08-08T07:17:42.586Z,72.80
2017-08-08T07:20:11.035Z,72.60
2017-08-08T07:22:39.278Z,73.50
2017-08-08T07:25:06.858Z,73.50
2017-08-08T07:27:34.411Z,73.00
2017-08-08T07:30:01.910Z,72.00
2017-08-08T07:32:29.375Z,72.50
2017-08-08T07:34:57.642Z,70.00
2017-08-08T07:37:25.198Z,70.00
2017-08-08T07:39:52.695Z,68.80
2017-08-08T07:42:20.955Z,65.60
2017-08-08T07:44:49.181Z,66.00
2017-08-08T07:47:16.754Z,65.90
2017-08-08T07:49:45.021Z,64.40
2017-08-08T07:52:12.562Z,64.40
2017-08-08T07:54:40.143Z,63.20
2017-08-08T07:57:07.646Z,61.50
2017-08-08T07:59:36.050Z,59.00
2017-08-08T08:02:03.555Z,59.00
2017-08-08T08:04:31.814Z,58.90
2017-08-08T08:07:00.074Z,58.60
2017-08-08T08:09:28.436Z,59.00
2017-08-08T08:11:56.698Z,59.00
2017-08-08T08:14:24.925Z,59.20
2017-08-08T08:16:52.606Z,59.20
2017-08-08T08:19:20.862Z,59.10
2017-08-08T08:21:48.406Z,59.10
2017-08-08T08:24:16.875Z,58.50
2017-08-08T08:26:44.414Z,58.50
2017-08-08T08:29:12.637Z,58.60
2017-08-08T08:31:40.319Z,58.40
2017-08-08T08:34:08.578Z,58.00
2017-08-08T08:36:36.838Z,59.00
2017-08-08T08:39:05.310Z,58.40
2017-08-08T08:41:33.582Z,58.90
2017-08-08T08:44:01.944Z,57.70
2017-08-08T08:46:30.397Z,57.10
2017-08-08T08:48:58.688Z,56.90
2017-08-08T08:51:26.153Z,56.80
2017-08-08T08:53:53.634Z,56.70
2017-08-08T08:56:21.173Z,57.20
2017-08-08T08:58:48.666Z,56.80
2017-08-08T09:01:16.174Z,56.90
2017-08-08T09:03:44.438Z,56.50
2017-08-08T09:06:12.798Z,56.40
2017-08-08T09:08:41.021Z,56.00
2017-08-08T09:11:08.504Z,56.00
2017-08-08T09:13:36.762Z,56.50
2017-08-08T09:16:05.001Z,56.30
2017-08-08T09:18:32.463Z,56.30
2017-08-08T09:21:00.722Z,55.00
2017-08-08T09:23:28.986Z,55.30
2017-08-08T09:25:57.442Z,54.50
2017-08-08T09:28:25.710Z,55.00
2017-08-08T09:30:53.938Z,54.50
2017-08-08T09:33:21.516Z,54.50
2017-08-08T09:35:49.046Z,55.50
2017-08-08T09:38:17.282Z,54.00
2017-08-08T09:40:44.849Z,54.00
2017-08-08T09:43:13.115Z,55.60
2017-08-08T09:45:41.342Z,53.80
2017-08-08T09:48:08.976Z,53.80
2017-08-08T09:50:36.467Z,53.50
2017-08-08T09:53:04.002Z,53.60
2017-08-08T09:55:32.470Z,54.00
2017-08-08T09:58:00.730Z,54.40
2017-08-08T10:00:29.883Z,53.60
2017-08-08T10:02:57.449Z,53.60
2017-08-08T10:05:25.683Z,54.20
2017-08-08T10:07:53.159Z,54.10
2017-08-08T10:10:21.857Z,55.20
2017-08-08T10:12:49.322Z,55.20
2017-08-08T10:15:16.902Z,54.50
2017-08-08T10:17:45.138Z,56.60
2017-08-08T10:20:12.717Z,56.00
2017-08-08T10:22:40.982Z,57.40
2017-08-08T10:25:08.454Z,57.30
2017-08-08T10:27:35.961Z,57.20
2017-08-08T10:30:03.506Z,57.00
2017-08-08T10:32:31.741Z,57.30
2017-08-08T10:34:59.224Z,57.30
2017-08-08T10:37:26.694Z,56.20
2017-08-08T10:39:54.206Z,55.70
2017-08-08T10:42:21.806Z,56.50
2017-08-08T10:44:49.270Z,56.50
2017-08-08T10:47:16.741Z,56.80
2017-08-08T10:49:44.238Z,57.20
2017-08-08T10:52:11.730Z,57.50
2017-08-08T10:54:39.193Z,58.40
2017-08-08T10:57:07.466Z,58.60
2017-08-08T10:59:35.730Z,57.70
2017-08-08T11:02:03.995Z,58.50
2017-08-08T11:04:32.356Z,58.60
2017-08-08T11:07:00.609Z,59.20
2017-08-08T11:09:28.857Z,59.50
2017-08-08T11:11:56.402Z,59.40
2017-08-08T11:14:24.649Z,59.00
2017-08-08T11:16:52.920Z,60.00
2017-08-08T11:19:20.459Z,59.40
2017-08-08T11:21:48.727Z,61.00
2017-08-08T11:24:18.265Z,60.90
2017-08-08T11:26:45.854Z,60.70
2017-08-08T11:29:13.366Z,62.70
2017-08-08T11:31:45.230Z,63.00
2017-08-08T11:34:12.755Z,62.90
2017-08-08T11:36:41.031Z,61.90
2017-08-08T11:39:08.503Z,61.90
2017-08-08T11:41:36.003Z,63.00
2017-08-08T11:44:03.566Z,62.20
2017-08-08T11:46:31.798Z,62.80
2017-08-08T11:48:59.271Z,62.80
2017-08-08T11:51:27.631Z,64.10
2017-08-08T11:53:55.894Z,64.90
2017-08-08T11:56:24.131Z,64.20
2017-08-08T11:58:51.706Z,64.10
2017-08-08T12:01:19.968Z,66.50
2017-08-08T12:03:48.231Z,65.10
2017-08-08T12:06:15.699Z,65.00
2017-08-08T12:08:43.214Z,64.30
2017-08-08T12:11:10.723Z,66.70
2017-08-08T12:13:38.275Z,67.10
2017-08-08T12:16:05.839Z,67.90
2017-08-08T12:18:33.314Z,69.60
2017-08-08T12:21:00.783Z,70.90
2017-08-08T12:23:29.254Z,72.10
2017-08-08T12:25:57.514Z,73.20
2017-08-08T12:28:25.778Z,72.40
2017-08-08T12:30:54.030Z,73.90
2017-08-08T12:33:22.257Z,74.90
2017-08-08T12:35:49.729Z,74.70
2017-08-08T12:38:18.098Z,72.40
2017-08-08T12:40:46.360Z,72.20
2017-08-08T12:43:14.618Z,71.70
2017-08-08T12:45:42.982Z,68.80
2017-08-08T12:48:11.237Z,69.90
2017-08-08T12:50:39.506Z,69.50
2017-08-08T12:53:07.774Z,68.50
2017-08-08T12:55:35.304Z,68.50
2017-08-08T12:58:03.558Z,69.40
2017-08-08T13:00:31.805Z,69.20
2017-08-08T13:02:59.283Z,68.90
2017-08-08T13:05:26.805Z,68.80
2017-08-08T13:07:55.175Z,69.90
2017-08-08T13:10:23.422Z,70.30
2017-08-08T13:12:51.690Z,70.70
2017-08-08T13:15:20.170Z,70.10
2017-08-08T13:17:47.647Z,70.10
2017-08-08T13:20:15.110Z,69.50
2017-08-08T13:22:42.697Z,69.80
2017-08-08T13:25:10.318Z,70.30
2017-08-08T13:27:37.876Z,70.20
2017-08-08T13:30:06.134Z,71.80
2017-08-08T13:32:34.368Z,71.50
2017-08-08T13:35:01.826Z,71.50
2017-08-08T13:37:30.082Z,71.60
2017-08-08T13:39:57.550Z,71.60
2017-08-08T13:42:25.013Z,73.30
2017-08-08T13:45:02.531Z,73.50
2017-08-08T13:47:33.386Z,72.20
2017-08-08T13:50:01.132Z,72.60
2017-08-08T13:52:29.358Z,72.00
2017-08-08T13:54:56.831Z,71.80
2017-08-08T13:57:25.078Z,73.90
2017-08-08T13:59:52.546Z,73.80
2017-08-08T14:02:20.782Z,73.80
2017-08-08T14:04:48.277Z,73.80
2017-08-08T14:07:15.754Z,74.90
2017-08-08T14:09:43.224Z,76.20
2017-08-08T14:12:11.478Z,79.70
2017-08-08T14:14:39.756Z,79.20
2017-08-08T14:17:07.228Z,79.20
2017-08-08T14:19:34.939Z,78.00
2017-08-08T14:22:03.202Z,78.80
2017-08-08T14:24:31.435Z,77.50
2017-08-08T14:26:59.125Z,77.60
2017-08-08T14:29:26.603Z,78.80
2017-08-08T14:31:54.070Z,78.70
2017-08-08T14:34:21.643Z,79.90
2017-08-08T14:36:49.111Z,80.00
2017-08-08T14:39:16.590Z,79.20
2017-08-08T14:41:44.167Z,80.40
2017-08-08T14:44:12.427Z,80.60
2017-08-08T14:46:40.650Z,81.40
2017-08-08T14:49:08.231Z,81.40
2017-08-08T14:51:35.713Z,83.10
2017-08-08T14:54:03.946Z,85.70
2017-08-08T14:56:31.443Z,84.80
2017-08-08T14:58:58.934Z,84.40
2017-08-08T15:01:26.447Z,86.80
2017-08-08T15:03:53.951Z,87.90
2017-08-08T15:06:22.210Z,88.90
2017-08-08T15:08:50.470Z,90.10
2017-08-08T15:11:18.723Z,90.50
2017-08-08T15:13:46.990Z,90.50
2017-08-08T15:16:15.250Z,90.50
2017-08-08T15:18:43.612Z,90.10
2017-08-08T15:21:11.846Z,90.00
2017-08-08T15:23:39.419Z,89.80
2017-08-08T15:26:07.642Z,90.10
2017-08-08T15:28:35.111Z,90.10
2017-08-08T15:31:03.378Z,84.90
2017-08-08T15:33:31.639Z,82.70
2017-08-08T15:35:59.869Z,80.40
2017-08-08T15:38:27.379Z,80.30
2017-08-08T15:40:54.946Z,77.60
2017-08-08T15:43:22.410Z,73.40
2017-08-08T15:45:49.971Z,64.30
2017-08-08T15:48:18.273Z,56.20
2017-08-08T15:50:45.807Z,56.10
2017-08-08T15:53:13.286Z,55.80
2017-08-08T15:55:40.754Z,54.10
2017-08-08T15:58:08.227Z,53.00
2017-08-08T16:00:36.603Z,53.30
2017-08-08T16:03:04.078Z,53.30
2017-08-08T16:05:31.566Z,54.50
2017-08-08T16:08:00.034Z,56.20
2017-08-08T16:10:28.299Z,53.70
2017-08-08T16:12:56.562Z,51.50
2017-08-08T16:15:24.826Z,50.00
2017-08-08T16:17:52.389Z,49.80
2017-08-08T16:20:19.868Z,49.00
2017-08-08T16:22:47.453Z,49.00
2017-08-08T16:25:15.709Z,50.80
2017-08-08T16:27:43.955Z,53.50
2017-08-08T16:30:12.214Z,55.50
2017-08-08T16:32:39.779Z,55.50
2017-08-08T16:35:08.014Z,59.90
2017-08-08T16:37:35.574Z,59.90
2017-08-08T16:40:03.817Z,65.50
2017-08-08T16:42:31.382Z,65.40
2017-08-08T16:44:59.642Z,69.80
2017-08-08T16:47:27.905Z,71.70
2017-08-08T16:49:55.446Z,71.60
2017-08-08T16:52:22.918Z,73.70
2017-08-08T16:54:50.422Z,75.10
2017-08-08T16:57:18.693Z,78.40
2017-08-08T16:59:46.959Z,79.60
2017-08-08T17:02:14.491Z,79.60
2017-08-08T17:04:42.753Z,81.60
2017-08-08T17:07:11.019Z,82.60
2017-08-08T17:09:38.559Z,82.60
2017-08-08T17:12:06.037Z,83.20
2017-08-08T17:14:33.523Z,84.10
2017-08-08T17:17:01.289Z,84.50
2017-08-08T17:19:29.551Z,85.70
2017-08-08T17:21:57.921Z,85.90
2017-08-08T17:24:25.455Z,85.80
2017-08-08T17:26:53.715Z,86.60
2017-08-08T17:29:21.973Z,87.10
2017-08-08T17:31:50.334Z,88.50
2017-08-08T17:34:18.575Z,88.70
2017-08-08T17:36:46.143Z,88.70
2017-08-08T17:39:14.415Z,90.20
2017-08-08T17:41:41.959Z,90.20
2017-08-08T17:44:09.490Z,92.10
2017-08-08T17:46:37.745Z,94.40
2017-08-08T17:49:06.010Z,94.40
2017-08-08T17:51:33.682Z,94.30
2017-08-08T17:54:01.922Z,94.50
2017-08-08T17:56:29.490Z,94.50
2017-08-08T17:58:57.738Z,94.80
2017-08-08T18:01:26.010Z,93.80
2017-08-08T18:03:54.375Z,93.90
2017-08-08T18:06:22.605Z,94.10
2017-08-08T18:08:50.078Z,94.00
2017-08-08T18:11:17.623Z,95.00
2017-08-08T18:13:45.097Z,95.20
2017-08-08T18:16:12.566Z,94.50
2017-08-08T18:18:40.147Z,94.90
2017-08-08T18:21:08.386Z,94.90
2017-08-08T18:23:35.945Z,94.80
2017-08-08T18:26:04.409Z,94.70
2017-08-08T18:28:32.676Z,94.50
2017-08-08T18:31:00.941Z,95.20
2017-08-08T18:33:28.597Z,95.20
2017-08-08T18:35:56.122Z,94.60
2017-08-08T18:38:24.382Z,95.20
2017-08-08T18:40:52.630Z,94.30
2017-08-08T18:43:20.870Z,95.00
2017-08-08T18:45:48.458Z,95.30
2017-08-08T18:48:16.006Z,94.70
2017-08-08T18:50:44.248Z,95.30
2017-08-08T18:53:12.507Z,95.70
2017-08-08T18:55:40.747Z,95.70
2017-08-08T18:58:08.317Z,95.70
2017-08-08T19:00:36.782Z,95.80
2017-08-08T19:03:05.047Z,96.30
2017-08-08T19:05:32.590Z,96.30
2017-08-08T19:08:01.050Z,95.10
2017-08-08T19:10:29.323Z,95.70
2017-08-08T19:12:56.796Z,95.70
2017-08-08T19:15:24.323Z,96.10
2017-08-08T19:17:51.811Z,96.30
2017-08-08T19:20:19.469Z,96.50
2017-08-08T19:22:47.030Z,96.80
2017-08-08T19:25:16.919Z,95.80
2017-08-08T19:27:44.482Z,95.80
2017-08-08T19:30:14.032Z,95.70
2017-08-08T19:32:42.571Z,95.10
2017-08-08T19:35:10.934Z,95.30
2017-08-08T19:37:38.490Z,94.80
2017-08-08T19:40:06.018Z,95.10
2017-08-08T19:42:33.742Z,95.20
2017-08-08T19:45:01.281Z,95.20
2017-08-08T19:47:28.763Z,95.00
2017-08-08T19:49:56.381Z,95.90
2017-08-08T19:52:23.927Z,95.40
2017-08-08T19:54:51.421Z,94.70
2017-08-08T19:57:18.988Z,95.20
2017-08-08T20:02:39.566Z,95.50
2017-08-08T20:05:07.886Z,95.90
2017-08-08T20:07:36.151Z,95.90
2017-08-08T20:10:04.615Z,95.60
2017-08-08T20:12:32.873Z,95.60
2017-08-08T20:15:01.110Z,95.80
2017-08-08T20:17:28.687Z,95.80
2017-08-08T20:19:56.938Z,95.10
2017-08-08T20:22:25.169Z,95.40
2017-08-08T20:24:53.543Z,95.40
2017-08-08T20:27:21.016Z,95.40
2017-08-08T20:29:48.613Z,95.20
2017-08-08T20:32:16.331Z,95.40
2017-08-08T20:34:44.591Z,95.40
2017-08-08T20:37:12.862Z,95.40
2017-08-08T20:39:40.594Z,95.30
2017-08-08T20:42:08.826Z,95.00
2017-08-08T20:44:36.294Z,95.00
2017-08-08T20:47:04.665Z,95.40
2017-08-08T20:49:32.920Z,95.70
2017-08-08T20:52:01.187Z,95.90
2017-08-08T20:54:28.826Z,95.90
2017-08-08T20:56:56.377Z,95.60
2017-08-08T20:59:24.641Z,95.90
2017-08-08T21:01:52.890Z,96.10
2017-08-08T21:04:21.127Z,96.10
2017-08-08T21:06:48.694Z,96.00
2017-08-08T21:09:16.964Z,95.70
2017-08-08T21:11:44.438Z,95.60
2017-08-08T21:14:11.938Z,95.40
2017-08-08T21:16:40.198Z,95.00
2017-08-08T21:19:08.446Z,94.70
2017-08-08T21:21:36.101Z,94.70
2017-08-08T21:24:04.354Z,94.50
2017-08-08T21:26:31.915Z,94.50
2017-08-08T21:29:00.177Z,94.50
2017-08-08T21:31:27.719Z,94.50
2017-08-08T21:33:55.959Z,94.00
2017-08-08T21:36:24.214Z,94.50
2017-08-08T21:38:52.478Z,94.90
2017-08-08T21:41:20.734Z,94.60
2017-08-08T21:43:49.016Z,94.40
2017-08-08T21:46:16.539Z,94.30
2017-08-08T21:48:44.799Z,94.50
2017-08-08T21:51:13.090Z,94.50
2017-08-08T21:53:40.602Z,94.40
2017-08-08T21:56:08.870Z,94.40
2017-08-08T21:58:37.226Z,94.60
2017-08-08T22:01:05.486Z,94.80
2017-08-08T22:03:33.754Z,94.70
2017-08-08T22:06:01.494Z,94.70
2017-08-08T22:08:29.735Z,94.80
2017-08-08T22:10:57.208Z,94.80
2017-08-08T22:13:25.669Z,95.20
2017-08-08T22:15:53.926Z,95.20
2017-08-08T22:18:22.159Z,95.30
2017-08-08T22:20:49.651Z,95.30
2017-08-08T22:23:17.128Z,95.30
2017-08-08T22:25:45.374Z,95.70
2017-08-08T22:28:13.635Z,95.40
2017-08-08T22:30:42.738Z,95.40
2017-08-08T22:33:10.266Z,95.30
2017-08-08T22:35:38.530Z,95.40
2017-08-08T22:38:06.786Z,95.30
2017-08-08T22:40:35.152Z,95.10
2017-08-08T22:43:03.410Z,95.00
2017-08-08T22:45:31.671Z,94.90
2017-08-08T22:47:59.918Z,94.80
2017-08-08T22:50:27.386Z,94.80
2017-08-08T22:52:54.858Z,94.90
2017-08-08T22:55:22.363Z,95.00
2017-08-08T22:57:50.617Z,95.00
2017-08-08T23:00:18.851Z,95.10
2017-08-08T23:02:46.425Z,95.10
2017-08-08T23:05:14.697Z,95.20
2017-08-08T23:07:42.259Z,95.20
2017-08-08T23:10:09.970Z,95.20
2017-08-08T23:12:38.210Z,95.40
2017-08-08T23:15:05.683Z,95.40
2017-08-08T23:17:33.951Z,95.60
2017-08-08T23:20:01.479Z,95.60
2017-08-08T23:22:28.967Z,95.50
2017-08-08T23:24:57.425Z,95.60
2017-08-08T23:27:24.919Z,95.60
2017-08-08T23:29:53.177Z,95.60
2017-08-08T23:32:20.718Z,95.60
2017-08-08T23:34:48.974Z,95.70
2017-08-08T23:37:17.206Z,95.80
2017-08-08T23:39:44.706Z,95.70
2017-08-08T23:42:12.172Z,95.80
2017-08-08T23:44:39.639Z,95.90
2017-08-08T23:47:07.306Z,96.00
2017-08-08T23:49:35.568Z,96.00
2017-08-08T23:52:03.827Z,96.00
2017-08-08T23:54:32.075Z,95.90
2017-08-08T23:57:00.346Z,96.00
2017-08-08T23:59:28.606Z,96.00
